MQT1AD EDDC-EDDM
Flight info
| Callsign | MQT1AD |
|---|---|
| Flight time | 1h 8m |
| Altitude | 30000 |
| Route | MAREM8E/04 MAREM DCT VESUB T106 TUSTO T108 LANDU LANDU2A |
| Aircraft | A320/M-SDE3FGHIRWY/LB1 |
Departure
| Time | 2026-05-01 11:29 |
|---|---|
| Airport | Dresden Airport (EDDC) |
Arrival
| Time | 2026-05-01 12:37 |
|---|---|
| Airport | Munich Airport (EDDM) |
| Time | Latitude | Longitude | Altitude | Speed | Heading |
|---|---|---|---|---|---|
| 2026-05-01 11:06 | 51.12622 | 13.76536 | 712 ft | 0 kts | 220° |
| 2026-05-01 11:19 | 51.12637 | 13.76555 | 715 ft | 4 kts | 218° |
| 2026-05-01 11:20 | 51.12659 | 13.76580 | 712 ft | 4 kts | 212° |
| 2026-05-01 11:20 | 51.12682 | 13.76601 | 717 ft | 4 kts | 199° |
| 2026-05-01 11:20 | 51.12706 | 13.76607 | 713 ft | 4 kts | 153° |
| 2026-05-01 11:20 | 51.12716 | 13.76596 | 714 ft | 1 kts | 131° |
| 2026-05-01 11:21 | 51.12716 | 13.76595 | 712 ft | 0 kts | 131° |
| 2026-05-01 11:24 | 51.12708 | 13.76604 | 712 ft | 3 kts | 150° |
| 2026-05-01 11:24 | 51.12685 | 13.76581 | 716 ft | 6 kts | 247° |
| 2026-05-01 11:24 | 51.12745 | 13.76487 | 717 ft | 7 kts | 314° |
| 2026-05-01 11:25 | 51.12774 | 13.76418 | 713 ft | 8 kts | 285° |
| 2026-05-01 11:25 | 51.12708 | 13.76275 | 717 ft | 9 kts | 220° |
| 2026-05-01 11:25 | 51.12656 | 13.76204 | 717 ft | 10 kts | 220° |
| 2026-05-01 11:26 | 51.12599 | 13.76126 | 716 ft | 11 kts | 220° |
| 2026-05-01 11:26 | 51.12469 | 13.75948 | 717 ft | 13 kts | 221° |
| 2026-05-01 11:26 | 51.12397 | 13.75848 | 716 ft | 14 kts | 221° |
| 2026-05-01 11:27 | 51.12388 | 13.75707 | 717 ft | 14 kts | 288° |
| 2026-05-01 11:27 | 51.12421 | 13.75586 | 727 ft | 9 kts | 302° |
| 2026-05-01 11:27 | 51.12449 | 13.75533 | 738 ft | 8 kts | 315° |
| 2026-05-01 11:27 | 51.12509 | 13.75531 | 740 ft | 10 kts | 34° |
| 2026-05-01 11:28 | 51.12593 | 13.75661 | 741 ft | 38 kts | 44° |
| 2026-05-01 11:28 | 51.12955 | 13.76154 | 733 ft | 100 kts | 40° |
| 2026-05-01 11:28 | 51.13639 | 13.77064 | 726 ft | 155 kts | 38° |
| 2026-05-01 11:29 | 51.15451 | 13.79442 | 2100 ft | 181 kts | 39° |
| 2026-05-01 11:29 | 51.16416 | 13.80790 | 2778 ft | 189 kts | 39° |
| 2026-05-01 11:29 | 51.18746 | 13.83856 | 3455 ft | 256 kts | 38° |
| 2026-05-01 11:30 | 51.20032 | 13.85937 | 4539 ft | 264 kts | 58° |
| 2026-05-01 11:30 | 51.20526 | 13.88724 | 5909 ft | 266 kts | 87° |
| 2026-05-01 11:30 | 51.20320 | 13.91672 | 7126 ft | 270 kts | 107° |
| 2026-05-01 11:30 | 51.19275 | 13.94166 | 8307 ft | 278 kts | 136° |
| 2026-05-01 11:31 | 51.17748 | 13.96135 | 9368 ft | 285 kts | 137° |
| 2026-05-01 11:31 | 51.16272 | 13.98282 | 10442 ft | 289 kts | 134° |
| 2026-05-01 11:31 | 51.14816 | 14.00615 | 11168 ft | 306 kts | 131° |
| 2026-05-01 11:31 | 51.13304 | 14.03148 | 11807 ft | 325 kts | 131° |
| 2026-05-01 11:32 | 51.11720 | 14.05840 | 12394 ft | 342 kts | 130° |
| 2026-05-01 11:32 | 51.09902 | 14.08435 | 12972 ft | 363 kts | 144° |
| 2026-05-01 11:32 | 51.07538 | 14.10059 | 13646 ft | 379 kts | 165° |
| 2026-05-01 11:32 | 51.04876 | 14.10268 | 14452 ft | 390 kts | 185° |
| 2026-05-01 11:33 | 51.02246 | 14.09130 | 15251 ft | 397 kts | 201° |
| 2026-05-01 11:33 | 50.99694 | 14.07358 | 16004 ft | 403 kts | 203° |
| 2026-05-01 11:33 | 50.97127 | 14.05510 | 16758 ft | 408 kts | 204° |
| 2026-05-01 11:33 | 50.94534 | 14.03607 | 17482 ft | 412 kts | 204° |
| 2026-05-01 11:34 | 50.91920 | 14.01678 | 18202 ft | 417 kts | 204° |
| 2026-05-01 11:34 | 50.89278 | 13.99737 | 18873 ft | 421 kts | 204° |
| 2026-05-01 11:34 | 50.86603 | 13.97790 | 19560 ft | 424 kts | 204° |
| 2026-05-01 11:34 | 50.83902 | 13.95840 | 20208 ft | 428 kts | 203° |
| 2026-05-01 11:35 | 50.81172 | 13.93879 | 20842 ft | 433 kts | 203° |
| 2026-05-01 11:35 | 50.78417 | 13.91906 | 21469 ft | 437 kts | 203° |
| 2026-05-01 11:35 | 50.75641 | 13.89916 | 22070 ft | 441 kts | 204° |
| 2026-05-01 11:35 | 50.72837 | 13.87906 | 22669 ft | 445 kts | 204° |
| 2026-05-01 11:36 | 50.70010 | 13.85879 | 23227 ft | 448 kts | 204° |
| 2026-05-01 11:36 | 50.67192 | 13.83860 | 23766 ft | 452 kts | 204° |
| 2026-05-01 11:36 | 50.64310 | 13.81799 | 24291 ft | 456 kts | 204° |
| 2026-05-01 11:36 | 50.61412 | 13.79734 | 24794 ft | 459 kts | 204° |
| 2026-05-01 11:37 | 50.58486 | 13.77653 | 25264 ft | 462 kts | 204° |
| 2026-05-01 11:37 | 50.55541 | 13.75557 | 25727 ft | 465 kts | 204° |
| 2026-05-01 11:37 | 50.52591 | 13.73459 | 26157 ft | 468 kts | 204° |
| 2026-05-01 11:37 | 50.49613 | 13.71340 | 26572 ft | 471 kts | 204° |
| 2026-05-01 11:38 | 50.46621 | 13.69213 | 27010 ft | 472 kts | 204° |
| 2026-05-01 11:38 | 50.43635 | 13.67095 | 27551 ft | 470 kts | 204° |
| 2026-05-01 11:38 | 50.40655 | 13.64988 | 28030 ft | 469 kts | 204° |
| 2026-05-01 11:38 | 50.37682 | 13.62892 | 28471 ft | 468 kts | 204° |
| 2026-05-01 11:39 | 50.34719 | 13.60803 | 28908 ft | 467 kts | 204° |
| 2026-05-01 11:39 | 50.31756 | 13.58712 | 29348 ft | 466 kts | 204° |
| 2026-05-01 11:39 | 50.28804 | 13.56636 | 29810 ft | 465 kts | 203° |
| 2026-05-01 11:39 | 50.25859 | 13.54571 | 30240 ft | 465 kts | 203° |
| 2026-05-01 11:40 | 50.22902 | 13.52503 | 30395 ft | 465 kts | 203° |
| 2026-05-01 11:40 | 50.17022 | 13.48382 | 30440 ft | 462 kts | 203° |
| 2026-05-01 11:41 | 50.11148 | 13.44284 | 30439 ft | 462 kts | 203° |
| 2026-05-01 11:41 | 50.05273 | 13.40206 | 30439 ft | 462 kts | 203° |
| 2026-05-01 11:42 | 49.99397 | 13.36129 | 30440 ft | 462 kts | 203° |
| 2026-05-01 11:42 | 49.93513 | 13.32054 | 30440 ft | 464 kts | 203° |
| 2026-05-01 11:43 | 49.88609 | 13.28677 | 30448 ft | 464 kts | 203° |
| 2026-05-01 11:43 | 49.82715 | 13.24618 | 30450 ft | 464 kts | 203° |
| 2026-05-01 11:44 | 49.73872 | 13.18531 | 30452 ft | 463 kts | 203° |
| 2026-05-01 11:44 | 49.67974 | 13.14511 | 30453 ft | 463 kts | 203° |
| 2026-05-01 11:45 | 49.62085 | 13.10488 | 30452 ft | 463 kts | 203° |
| 2026-05-01 11:45 | 49.56187 | 13.06463 | 30453 ft | 463 kts | 203° |
| 2026-05-01 11:46 | 49.50283 | 13.02455 | 30452 ft | 463 kts | 203° |
| 2026-05-01 11:46 | 49.44383 | 12.98468 | 30450 ft | 463 kts | 203° |
| 2026-05-01 11:47 | 49.38477 | 12.94494 | 30449 ft | 463 kts | 203° |
| 2026-05-01 11:47 | 49.32568 | 12.90517 | 30445 ft | 463 kts | 203° |
| 2026-05-01 11:48 | 49.26699 | 12.86574 | 30442 ft | 463 kts | 203° |
| 2026-05-01 11:48 | 49.20790 | 12.82602 | 30425 ft | 464 kts | 203° |
| 2026-05-01 11:49 | 49.17834 | 12.80619 | 30187 ft | 462 kts | 203° |
| 2026-05-01 11:49 | 49.14889 | 12.78651 | 29937 ft | 462 kts | 202° |
| 2026-05-01 11:49 | 49.11955 | 12.76702 | 29216 ft | 460 kts | 202° |
| 2026-05-01 11:49 | 49.09008 | 12.74744 | 28146 ft | 461 kts | 202° |
| 2026-05-01 11:50 | 49.06081 | 12.72797 | 27439 ft | 455 kts | 202° |
| 2026-05-01 11:50 | 49.03207 | 12.70889 | 26786 ft | 447 kts | 202° |
| 2026-05-01 11:50 | 49.00380 | 12.69012 | 26127 ft | 440 kts | 202° |
| 2026-05-01 11:50 | 48.97593 | 12.67163 | 25467 ft | 434 kts | 202° |
| 2026-05-01 11:51 | 48.94847 | 12.65349 | 24812 ft | 428 kts | 202° |
| 2026-05-01 11:51 | 48.92136 | 12.63561 | 24164 ft | 423 kts | 202° |
| 2026-05-01 11:51 | 48.89451 | 12.61782 | 23503 ft | 418 kts | 203° |
| 2026-05-01 11:51 | 48.86848 | 12.59854 | 22601 ft | 419 kts | 211° |
| 2026-05-01 11:52 | 48.84525 | 12.57194 | 21470 ft | 417 kts | 219° |
| 2026-05-01 11:52 | 48.82303 | 12.54401 | 20508 ft | 412 kts | 219° |
| 2026-05-01 11:52 | 48.80142 | 12.51635 | 19793 ft | 400 kts | 220° |
| 2026-05-01 11:52 | 48.78050 | 12.48942 | 19127 ft | 389 kts | 219° |
| 2026-05-01 11:53 | 48.75978 | 12.46370 | 18498 ft | 384 kts | 218° |
| 2026-05-01 11:53 | 48.73879 | 12.43882 | 17856 ft | 382 kts | 217° |
| 2026-05-01 11:53 | 48.71767 | 12.41450 | 17209 ft | 380 kts | 216° |
| 2026-05-01 11:53 | 48.69660 | 12.39054 | 16573 ft | 378 kts | 216° |
| 2026-05-01 11:54 | 48.67564 | 12.36666 | 15907 ft | 376 kts | 216° |
| 2026-05-01 11:54 | 48.65512 | 12.34312 | 15274 ft | 374 kts | 217° |
| 2026-05-01 11:54 | 48.63448 | 12.31916 | 14718 ft | 374 kts | 217° |
| 2026-05-01 11:54 | 48.61351 | 12.29493 | 14466 ft | 383 kts | 214° |
| 2026-05-01 11:55 | 48.59053 | 12.27490 | 14215 ft | 379 kts | 203° |
| 2026-05-01 11:55 | 48.56578 | 12.26175 | 13965 ft | 377 kts | 193° |
| 2026-05-01 11:55 | 48.54055 | 12.25117 | 13712 ft | 376 kts | 198° |
| 2026-05-01 11:55 | 48.51713 | 12.23399 | 13470 ft | 376 kts | 213° |
| 2026-05-01 11:56 | 48.49754 | 12.20810 | 13233 ft | 375 kts | 229° |
| 2026-05-01 11:56 | 48.48347 | 12.17519 | 12981 ft | 373 kts | 246° |
| 2026-05-01 11:56 | 48.47613 | 12.13856 | 12726 ft | 358 kts | 262° |
| 2026-05-01 11:56 | 48.47334 | 12.10197 | 12479 ft | 345 kts | 265° |
| 2026-05-01 11:57 | 48.47079 | 12.06667 | 12226 ft | 334 kts | 264° |
| 2026-05-01 11:57 | 48.46824 | 12.03233 | 11976 ft | 325 kts | 264° |
| 2026-05-01 11:57 | 48.46573 | 11.99895 | 11708 ft | 317 kts | 264° |
| 2026-05-01 11:57 | 48.46327 | 11.96623 | 11481 ft | 311 kts | 264° |
| 2026-05-01 11:58 | 48.46085 | 11.93410 | 11222 ft | 306 kts | 264° |
| 2026-05-01 11:58 | 48.45847 | 11.90251 | 10972 ft | 301 kts | 264° |
| 2026-05-01 11:58 | 48.45371 | 11.83993 | 10472 ft | 300 kts | 264° |
| 2026-05-01 11:59 | 48.45132 | 11.80882 | 10222 ft | 298 kts | 264° |
| 2026-05-01 11:59 | 48.44893 | 11.77795 | 9969 ft | 295 kts | 263° |
| 2026-05-01 11:59 | 48.44656 | 11.74741 | 9719 ft | 292 kts | 263° |
| 2026-05-01 12:00 | 48.44192 | 11.68790 | 9302 ft | 282 kts | 263° |
| 2026-05-01 12:00 | 48.43967 | 11.65899 | 9180 ft | 275 kts | 263° |
| 2026-05-01 12:00 | 48.43533 | 11.60322 | 8933 ft | 262 kts | 263° |
| 2026-05-01 12:01 | 48.43322 | 11.57619 | 8813 ft | 258 kts | 263° |
| 2026-05-01 12:01 | 48.43109 | 11.54938 | 8696 ft | 258 kts | 263° |
| 2026-05-01 12:01 | 48.42897 | 11.52264 | 8568 ft | 257 kts | 263° |
| 2026-05-01 12:01 | 48.42686 | 11.49589 | 8443 ft | 257 kts | 263° |
| 2026-05-01 12:02 | 48.42478 | 11.46919 | 8315 ft | 257 kts | 263° |
| 2026-05-01 12:02 | 48.42268 | 11.44264 | 8186 ft | 255 kts | 263° |
| 2026-05-01 12:02 | 48.42053 | 11.41605 | 8071 ft | 256 kts | 263° |
| 2026-05-01 12:02 | 48.41840 | 11.38960 | 7940 ft | 254 kts | 263° |
| 2026-05-01 12:03 | 48.41623 | 11.36312 | 7736 ft | 256 kts | 261° |
| 2026-05-01 12:03 | 48.40974 | 11.33863 | 7498 ft | 254 kts | 232° |
| 2026-05-01 12:03 | 48.39615 | 11.32240 | 7251 ft | 250 kts | 200° |
| 2026-05-01 12:03 | 48.37930 | 11.31886 | 6995 ft | 244 kts | 169° |
| 2026-05-01 12:04 | 48.36405 | 11.32866 | 6752 ft | 238 kts | 138° |
| 2026-05-01 12:04 | 48.35418 | 11.34801 | 6410 ft | 234 kts | 117° |
| 2026-05-01 12:04 | 48.34689 | 11.36985 | 6038 ft | 233 kts | 115° |
| 2026-05-01 12:04 | 48.34000 | 11.39166 | 5780 ft | 230 kts | 114° |
| 2026-05-01 12:05 | 48.33452 | 11.41389 | 5542 ft | 225 kts | 95° |
| 2026-05-01 12:05 | 48.33839 | 11.46042 | 5083 ft | 223 kts | 82° |
| 2026-05-01 12:05 | 48.34035 | 11.48310 | 5007 ft | 212 kts | 82° |
| 2026-05-01 12:06 | 48.34210 | 11.50481 | 4838 ft | 209 kts | 83° |
| 2026-05-01 12:06 | 48.34383 | 11.52650 | 4599 ft | 208 kts | 83° |
| 2026-05-01 12:06 | 48.34555 | 11.54830 | 4325 ft | 210 kts | 83° |
| 2026-05-01 12:06 | 48.34725 | 11.56958 | 4063 ft | 200 kts | 83° |
| 2026-05-01 12:07 | 48.34885 | 11.58977 | 3814 ft | 189 kts | 83° |
| 2026-05-01 12:07 | 48.35034 | 11.60865 | 3560 ft | 177 kts | 83° |
| 2026-05-01 12:07 | 48.35176 | 11.62657 | 3338 ft | 169 kts | 83° |
| 2026-05-01 12:07 | 48.35310 | 11.64365 | 3105 ft | 157 kts | 83° |
| 2026-05-01 12:08 | 48.35434 | 11.65942 | 2904 ft | 148 kts | 83° |
| 2026-05-01 12:08 | 48.35551 | 11.67435 | 2709 ft | 140 kts | 83° |
| 2026-05-01 12:08 | 48.35661 | 11.68849 | 2521 ft | 134 kts | 83° |
| 2026-05-01 12:08 | 48.35770 | 11.70247 | 2359 ft | 135 kts | 83° |
| 2026-05-01 12:09 | 48.35879 | 11.71643 | 2172 ft | 134 kts | 83° |
| 2026-05-01 12:09 | 48.35987 | 11.73031 | 1999 ft | 133 kts | 84° |
| 2026-05-01 12:09 | 48.36095 | 11.74418 | 1821 ft | 134 kts | 83° |
| 2026-05-01 12:09 | 48.36211 | 11.75801 | 1679 ft | 133 kts | 83° |
| 2026-05-01 12:10 | 48.36318 | 11.77199 | 1532 ft | 132 kts | 83° |
| 2026-05-01 12:10 | 48.36515 | 11.80033 | 2647 ft | 142 kts | 83° |
| 2026-05-01 12:10 | 48.36645 | 11.81498 | 3568 ft | 136 kts | 82° |
| 2026-05-01 12:11 | 48.36966 | 11.84578 | 4508 ft | 175 kts | 68° |
| 2026-05-01 12:11 | 48.37830 | 11.86029 | 4785 ft | 206 kts | 30° |
| 2026-05-01 12:11 | 48.39311 | 11.86524 | 4970 ft | 232 kts | 1° |
| 2026-05-01 12:12 | 48.40942 | 11.86333 | 5003 ft | 235 kts | 355° |
| 2026-05-01 12:12 | 48.42567 | 11.86039 | 5014 ft | 238 kts | 355° |
| 2026-05-01 12:12 | 48.44193 | 11.85652 | 5022 ft | 237 kts | 344° |
| 2026-05-01 12:12 | 48.45575 | 11.84323 | 5020 ft | 240 kts | 311° |
| 2026-05-01 12:13 | 48.46291 | 11.82076 | 5017 ft | 242 kts | 279° |
| 2026-05-01 12:13 | 48.46311 | 11.79566 | 5013 ft | 245 kts | 266° |
| 2026-05-01 12:13 | 48.46171 | 11.77018 | 5011 ft | 243 kts | 265° |
| 2026-05-01 12:13 | 48.46010 | 11.74485 | 5013 ft | 243 kts | 264° |
| 2026-05-01 12:14 | 48.45848 | 11.71949 | 5014 ft | 241 kts | 264° |
| 2026-05-01 12:14 | 48.45688 | 11.69424 | 5011 ft | 243 kts | 264° |
| 2026-05-01 12:14 | 48.45527 | 11.66889 | 5010 ft | 243 kts | 265° |
| 2026-05-01 12:14 | 48.45366 | 11.64367 | 5012 ft | 242 kts | 264° |
| 2026-05-01 12:15 | 48.45204 | 11.61839 | 5015 ft | 242 kts | 264° |
| 2026-05-01 12:15 | 48.45042 | 11.59304 | 5020 ft | 244 kts | 264° |
| 2026-05-01 12:15 | 48.44882 | 11.56772 | 5011 ft | 243 kts | 264° |
| 2026-05-01 12:15 | 48.44721 | 11.54240 | 5004 ft | 242 kts | 264° |
| 2026-05-01 12:16 | 48.44561 | 11.51716 | 5008 ft | 243 kts | 264° |
| 2026-05-01 12:16 | 48.44402 | 11.49187 | 5013 ft | 243 kts | 264° |
| 2026-05-01 12:16 | 48.44241 | 11.46660 | 5008 ft | 243 kts | 264° |
| 2026-05-01 12:16 | 48.44078 | 11.44130 | 5003 ft | 243 kts | 264° |
| 2026-05-01 12:17 | 48.43895 | 11.41602 | 5013 ft | 243 kts | 258° |
| 2026-05-01 12:17 | 48.43171 | 11.39347 | 5014 ft | 240 kts | 226° |
| 2026-05-01 12:17 | 48.41792 | 11.37986 | 5004 ft | 237 kts | 200° |
| 2026-05-01 12:17 | 48.40269 | 11.37232 | 5002 ft | 225 kts | 194° |
| 2026-05-01 12:18 | 48.38793 | 11.36583 | 5004 ft | 218 kts | 194° |
| 2026-05-01 12:18 | 48.37340 | 11.35962 | 5005 ft | 217 kts | 192° |
| 2026-05-01 12:18 | 48.35864 | 11.36021 | 5008 ft | 212 kts | 158° |
| 2026-05-01 12:18 | 48.34722 | 11.37309 | 5006 ft | 203 kts | 124° |
| 2026-05-01 12:19 | 48.34039 | 11.39089 | 5009 ft | 190 kts | 116° |
| 2026-05-01 12:19 | 48.33465 | 11.40853 | 5004 ft | 187 kts | 115° |
| 2026-05-01 12:19 | 48.32908 | 11.42600 | 4944 ft | 188 kts | 114° |
| 2026-05-01 12:19 | 48.32346 | 11.44364 | 4836 ft | 187 kts | 114° |
| 2026-05-01 12:20 | 48.31828 | 11.46151 | 4716 ft | 186 kts | 103° |
| 2026-05-01 12:20 | 48.31893 | 11.48067 | 4625 ft | 185 kts | 80° |
| 2026-05-01 12:20 | 48.32078 | 11.49987 | 4562 ft | 186 kts | 83° |
| 2026-05-01 12:20 | 48.32237 | 11.51908 | 4450 ft | 184 kts | 83° |
| 2026-05-01 12:21 | 48.32391 | 11.53834 | 4252 ft | 188 kts | 83° |
| 2026-05-01 12:21 | 48.32549 | 11.55792 | 4005 ft | 189 kts | 83° |
| 2026-05-01 12:21 | 48.32703 | 11.57740 | 3767 ft | 187 kts | 83° |
| 2026-05-01 12:21 | 48.32854 | 11.59661 | 3525 ft | 182 kts | 83° |
| 2026-05-01 12:22 | 48.32998 | 11.61478 | 3289 ft | 168 kts | 82° |
| 2026-05-01 12:22 | 48.33088 | 11.62607 | 3149 ft | 161 kts | 83° |
| 2026-05-01 12:22 | 48.33253 | 11.64706 | 2873 ft | 143 kts | 83° |
| 2026-05-01 12:22 | 48.33366 | 11.66147 | 2703 ft | 137 kts | 83° |
| 2026-05-01 12:23 | 48.33477 | 11.67564 | 2508 ft | 136 kts | 84° |
| 2026-05-01 12:23 | 48.33586 | 11.68956 | 2336 ft | 134 kts | 83° |
| 2026-05-01 12:23 | 48.33695 | 11.70350 | 2156 ft | 133 kts | 84° |
| 2026-05-01 12:23 | 48.33804 | 11.71738 | 1978 ft | 134 kts | 84° |
| 2026-05-01 12:24 | 48.33912 | 11.73132 | 1802 ft | 134 kts | 83° |
| 2026-05-01 12:24 | 48.34021 | 11.74524 | 1853 ft | 130 kts | 83° |
| 2026-05-01 12:24 | 48.34127 | 11.75871 | 2565 ft | 133 kts | 83° |
| 2026-05-01 12:24 | 48.34238 | 11.77281 | 3350 ft | 139 kts | 83° |
| 2026-05-01 12:25 | 48.34329 | 11.78800 | 3900 ft | 153 kts | 83° |
| 2026-05-01 12:25 | 48.34276 | 11.82484 | 4538 ft | 206 kts | 115° |
| 2026-05-01 12:25 | 48.33281 | 11.84048 | 4796 ft | 213 kts | 150° |
| 2026-05-01 12:26 | 48.31833 | 11.84616 | 4959 ft | 218 kts | 171° |
| 2026-05-01 12:26 | 48.29318 | 11.84905 | 5009 ft | 218 kts | 174° |
| 2026-05-01 12:26 | 48.27804 | 11.84837 | 5018 ft | 220 kts | 193° |
| 2026-05-01 12:27 | 48.26514 | 11.83638 | 5017 ft | 224 kts | 229° |
| 2026-05-01 12:27 | 48.25659 | 11.79234 | 5011 ft | 224 kts | 264° |
| 2026-05-01 12:28 | 48.25340 | 11.74430 | 5005 ft | 243 kts | 264° |
| 2026-05-01 12:28 | 48.25176 | 11.71905 | 5010 ft | 244 kts | 264° |
| 2026-05-01 12:28 | 48.24847 | 11.66856 | 5012 ft | 244 kts | 264° |
| 2026-05-01 12:29 | 48.24681 | 11.64327 | 5014 ft | 243 kts | 264° |
| 2026-05-01 12:29 | 48.24517 | 11.61803 | 5013 ft | 243 kts | 264° |
| 2026-05-01 12:29 | 48.24190 | 11.56745 | 5007 ft | 245 kts | 264° |
| 2026-05-01 12:30 | 48.23867 | 11.51775 | 5009 ft | 231 kts | 265° |
| 2026-05-01 12:30 | 48.23713 | 11.49424 | 4998 ft | 222 kts | 264° |
| 2026-05-01 12:30 | 48.23566 | 11.47118 | 4997 ft | 222 kts | 266° |
| 2026-05-01 12:31 | 48.23787 | 11.44897 | 5001 ft | 220 kts | 297° |
| 2026-05-01 12:31 | 48.24809 | 11.43228 | 5000 ft | 216 kts | 334° |
| 2026-05-01 12:31 | 48.26231 | 11.42572 | 4990 ft | 215 kts | 351° |
| 2026-05-01 12:31 | 48.27713 | 11.42240 | 4990 ft | 215 kts | 355° |
| 2026-05-01 12:32 | 48.29151 | 11.42457 | 5006 ft | 210 kts | 26° |
| 2026-05-01 12:32 | 48.31067 | 11.45311 | 4993 ft | 187 kts | 53° |
| 2026-05-01 12:32 | 48.31813 | 11.46919 | 4992 ft | 186 kts | 65° |
| 2026-05-01 12:33 | 48.32043 | 11.48834 | 4857 ft | 189 kts | 85° |
| 2026-05-01 12:33 | 48.32164 | 11.50794 | 4650 ft | 190 kts | 83° |
| 2026-05-01 12:33 | 48.32309 | 11.52758 | 4404 ft | 188 kts | 83° |
| 2026-05-01 12:33 | 48.32464 | 11.54720 | 4158 ft | 190 kts | 82° |
| 2026-05-01 12:34 | 48.32616 | 11.56640 | 3916 ft | 180 kts | 83° |
| 2026-05-01 12:34 | 48.32762 | 11.58488 | 3677 ft | 174 kts | 82° |
| 2026-05-01 12:34 | 48.32901 | 11.60218 | 3456 ft | 161 kts | 83° |
| 2026-05-01 12:34 | 48.33024 | 11.61808 | 3238 ft | 147 kts | 83° |
| 2026-05-01 12:35 | 48.33141 | 11.63283 | 3049 ft | 138 kts | 82° |
| 2026-05-01 12:35 | 48.33251 | 11.64678 | 2874 ft | 132 kts | 83° |
| 2026-05-01 12:35 | 48.33360 | 11.66065 | 2723 ft | 135 kts | 84° |
| 2026-05-01 12:35 | 48.33469 | 11.67462 | 2524 ft | 134 kts | 84° |
| 2026-05-01 12:36 | 48.33578 | 11.68843 | 2349 ft | 133 kts | 84° |
| 2026-05-01 12:36 | 48.33687 | 11.70232 | 2165 ft | 133 kts | 84° |
| 2026-05-01 12:36 | 48.33795 | 11.71613 | 1996 ft | 133 kts | 83° |
| 2026-05-01 12:36 | 48.33903 | 11.73000 | 1821 ft | 134 kts | 84° |
| 2026-05-01 12:37 | 48.34011 | 11.74386 | 1642 ft | 134 kts | 84° |
| 2026-05-01 12:37 | 48.34118 | 11.75771 | 1494 ft | 131 kts | 84° |
| 2026-05-01 12:37 | 48.34198 | 11.76893 | 1479 ft | 53 kts | 83° |
| 2026-05-01 12:37 | 48.34229 | 11.77241 | 1487 ft | 26 kts | 78° |
| 2026-05-01 12:38 | 48.34291 | 11.77481 | 1484 ft | 23 kts | 60° |
| 2026-05-01 12:38 | 48.34366 | 11.77643 | 1477 ft | 16 kts | 52° |
| 2026-05-01 12:38 | 48.34429 | 11.77768 | 1472 ft | 13 kts | 53° |
| 2026-05-01 12:38 | 48.34474 | 11.77859 | 1485 ft | 7 kts | 52° |
| 2026-05-01 12:39 | 48.34495 | 11.77894 | 1480 ft | 2 kts | 44° |
| 2026-05-01 12:39 | 48.34517 | 11.77913 | 1487 ft | 5 kts | 22° |
| 2026-05-01 12:39 | 48.34559 | 11.77921 | 1487 ft | 7 kts | 360° |
| 2026-05-01 12:39 | 48.34618 | 11.77913 | 1487 ft | 10 kts | 353° |
| 2026-05-01 12:40 | 48.34696 | 11.77899 | 1476 ft | 13 kts | 352° |
| 2026-05-01 12:40 | 48.34791 | 11.77880 | 1487 ft | 15 kts | 352° |
| 2026-05-01 12:40 | 48.34904 | 11.77857 | 1487 ft | 18 kts | 352° |
| 2026-05-01 12:40 | 48.35032 | 11.77835 | 1487 ft | 15 kts | 354° |
| 2026-05-01 12:41 | 48.35123 | 11.77823 | 1487 ft | 11 kts | 355° |
| 2026-05-01 12:41 | 48.35192 | 11.77812 | 1482 ft | 8 kts | 353° |
| 2026-05-01 12:41 | 48.35249 | 11.77799 | 1482 ft | 9 kts | 340° |
| 2026-05-01 12:41 | 48.35274 | 11.77736 | 1477 ft | 4 kts | 271° |
| 2026-05-01 12:42 | 48.35272 | 11.77693 | 1481 ft | 0 kts | 265° |